Share

Aggersund, Denmark

8:19 PM CEST on April 23, 2014 (GMT +0200)
Halvrimmen (IJYLLAND11) Elev 13 ft | 57.12 °N, 9.59 °E | Change Station

Current weather conditions updated 4 minutes ago

Overcast
Overcast
53.8 °F
Feels Like 53.8 °F
N
0.0
Wind Variable Wind from ESE
Gusts 0.0 mph
Sunrise 5:54 AM
Sunset 8:48 PM
Moon Waning Crescent

Tomorrow is forecast to be Cooler than today. A few morning showers.

Pressure 30.24 in
Visibility 3.1 miles
Clouds Few 1500 ft
Overcast 4200 ft
Dew Point 46 °F
Humidity 75%
Rainfall 0.01 in
Snow Depth Not available.
UV 0.0 out of 16
Pollen Not available.
Air Quality Not available.
Flu Activity Not available.
SPECI EKKA 231808Z 10007KT 070V130 5000 -RA FEW015 OVC042 09/08 Q1024

More Conditions Fewer Conditions

Pressure 30.24 in
Visibility 3.1 miles
Clouds Few 1500 ft
Overcast 4200 ft
Dew Point 46 °F
Humidity 75%
Rainfall 0.01 in
Snow Depth Not available.
UV 0.0 out of 16
Pollen Not available.
Air Quality Not available.
Flu Activity Not available.
SPECI EKKA 231808Z 10007KT 070V130 5000 -RA FEW015 OVC042 09/08 Q1024

More Conditions Fewer Conditions

10-Day Weather Forecast

Almanac

Astronomy

Apr. 23, 2014 Rise Set
Actual Time 5:54 AM CEST 8:48 PM CEST
Civil Twilight 5:11 AM CEST 9:32 PM CEST
Nautical Twilight 4:13 AM CEST 10:31 PM CEST
Astronomical Twilight 2:53 AM CEST 11:54 PM CEST
Moon 3:30 AM CEST 1:26 PM CEST
Length of Visible Light 16h 21m
Length of Day
14h 54m
Tomorrow will be 4m 39s longer.
Waning Crescent, 34% of the Moon is Illuminated
Today
Waning Crescent
Apr 29
New
May 6
First Quarter
May 14
Full
May 21
Last Quarter

Today's Extremes

Country Highs Country Lows

Community

  • Stunning Sunrise
    Stunning Sunrise
  • spring flowers
    spring flowers
  • Earth Day Spectrum Ove' Blue
    Earth Day Spectrum Ove' Blue
  • BARN B&W
    BARN B&W
  • April Sunset
    April Sunset

WunderPhotos

Upload Photos

1,704,359 photos uploaded!

WunderBlogs® & News

Nearby

Snow Depth

Not available.

Coastal Water Temperatures

Place Temperature
No Stations Reporting

Earthquake Activity

City Distance Mag. Time & Date
No recent earthquake activity has been reported nearby.
Minimum magnitude displayed is 2.5.

Nearby Weather Stations

Station Location Temp. Dew Point Humidity Wind Precip. Elev Updated Type
Halvrimmen, Brovst 53.8 °F 46 °F 75% ESE  at  0.0 mph 0.00 in / hr 13 ft 8:14 PM CEST Normal

Show More Stations Show Fewer Stations

What do you think?

We're not finished. Please let us know what you like, what you don't like, and what you are still missing.